createdAt,value
2023-02-13T00:00:11.386Z,77.97
2023-02-13T00:02:38.494Z,78.09
2023-02-13T00:05:05.553Z,78.07
2023-02-13T00:07:32.382Z,77.59
2023-02-13T00:09:59.337Z,78.20
2023-02-13T00:12:26.189Z,78.00
2023-02-13T00:14:53.165Z,77.19
2023-02-13T00:17:20.087Z,77.07
2023-02-13T00:19:47.086Z,76.92
2023-02-13T00:22:14.148Z,77.02
2023-02-13T00:24:41.151Z,77.11
2023-02-13T00:27:08.109Z,77.97
2023-02-13T00:29:35.013Z,77.76
2023-02-13T00:32:02.103Z,77.45
2023-02-13T00:34:29.168Z,77.07
2023-02-13T00:36:56.088Z,77.52
2023-02-13T00:39:22.960Z,77.18
2023-02-13T00:41:49.902Z,77.45
2023-02-13T00:44:16.833Z,78.20
2023-02-13T00:46:43.974Z,77.84
2023-02-13T00:49:11.014Z,77.92
2023-02-13T00:51:37.984Z,78.15
2023-02-13T00:54:05.043Z,78.29
2023-02-13T00:56:31.991Z,78.54
2023-02-13T00:58:59.087Z,78.81
2023-02-13T01:01:26.137Z,78.51
2023-02-13T01:03:53.088Z,79.19
2023-02-13T01:06:20.025Z,79.29
2023-02-13T01:08:47.047Z,79.87
2023-02-13T01:11:15.202Z,78.44
2023-02-13T01:13:42.080Z,79.20
2023-02-13T01:16:09.033Z,78.67
2023-02-13T01:18:35.988Z,79.22
2023-02-13T01:21:05.412Z,77.89
2023-02-13T01:23:34.370Z,78.24
2023-02-13T01:26:01.523Z,78.54
2023-02-13T01:28:28.713Z,77.61
2023-02-13T01:30:57.288Z,76.86
2023-02-13T01:33:25.033Z,76.97
2023-02-13T01:35:52.117Z,76.63
2023-02-13T01:38:19.380Z,76.52
2023-02-13T01:40:47.613Z,76.50
2023-02-13T01:43:14.818Z,77.17
2023-02-13T01:45:43.050Z,76.81
2023-02-13T01:48:12.931Z,76.72
2023-02-13T01:50:44.386Z,77.69
2023-02-13T01:53:13.506Z,77.94
2023-02-13T01:55:45.709Z,80.10
2023-02-13T01:58:14.966Z,79.95
2023-02-13T02:00:41.901Z,79.32
2023-02-13T02:03:13.157Z,78.19
2023-02-13T02:05:40.447Z,77.73
2023-02-13T02:08:09.988Z,78.28
2023-02-13T02:10:36.952Z,78.07
2023-02-13T02:13:07.199Z,78.41
2023-02-13T02:15:34.127Z,78.40
2023-02-13T02:18:00.979Z,79.40
2023-02-13T02:20:28.280Z,79.42
2023-02-13T02:23:08.467Z,79.10
2023-02-13T02:25:35.685Z,79.30
2023-02-13T02:28:05.677Z,79.71
2023-02-13T02:30:35.714Z,79.01
2023-02-13T02:33:05.660Z,79.41
2023-02-13T02:35:33.914Z,78.90
2023-02-13T02:38:03.845Z,79.36
2023-02-13T02:40:32.190Z,79.20
2023-02-13T02:43:02.210Z,78.70
2023-02-13T02:45:38.903Z,78.77
2023-02-13T02:48:13.131Z,78.33
2023-02-13T02:50:43.029Z,77.70
2023-02-13T02:53:10.304Z,77.22
2023-02-13T02:55:42.064Z,78.01
2023-02-13T02:58:14.885Z,77.81
2023-02-13T03:00:46.214Z,78.00
2023-02-13T03:03:19.624Z,77.79
2023-02-13T03:05:51.514Z,78.21
2023-02-13T03:08:38.639Z,77.87
2023-02-13T03:11:09.964Z,78.25
2023-02-13T03:13:40.074Z,79.44
2023-02-13T03:16:10.584Z,78.04
2023-02-13T03:18:43.121Z,78.02
2023-02-13T03:21:17.584Z,78.50
2023-02-13T03:23:47.540Z,77.86
2023-02-13T03:26:17.473Z,78.73
2023-02-13T03:28:53.604Z,78.22
2023-02-13T03:31:20.887Z,79.57
2023-02-13T03:33:54.922Z,81.68
2023-02-13T03:36:27.966Z,80.19
2023-02-13T03:38:57.907Z,79.83
2023-02-13T03:41:29.139Z,78.29
2023-02-13T03:43:57.315Z,78.11
2023-02-13T03:46:26.100Z,78.82
2023-02-13T03:48:57.186Z,78.65
2023-02-13T03:51:28.384Z,78.20
2023-02-13T03:53:59.710Z,78.17
2023-02-13T03:56:30.844Z,77.84
2023-02-13T03:59:02.627Z,76.86
2023-02-13T04:01:31.019Z,75.70
2023-02-13T04:04:02.842Z,76.34
2023-02-13T04:06:32.411Z,75.88
2023-02-13T04:08:59.359Z,76.33
2023-02-13T04:11:31.968Z,76.22
2023-02-13T04:14:01.296Z,75.69
2023-02-13T04:16:28.491Z,75.74
2023-02-13T04:18:56.455Z,75.34
2023-02-13T04:21:23.466Z,75.72
2023-02-13T04:23:50.365Z,75.56
2023-02-13T04:26:19.192Z,75.05
2023-02-13T04:28:46.145Z,75.99
2023-02-13T04:31:13.511Z,75.43
2023-02-13T04:33:40.765Z,75.47
2023-02-13T04:36:07.942Z,76.16
2023-02-13T04:38:34.790Z,75.45
2023-02-13T04:41:01.706Z,75.98
2023-02-13T04:43:28.669Z,76.28
2023-02-13T04:45:55.593Z,76.17
2023-02-13T04:48:22.543Z,76.39
2023-02-13T04:50:49.382Z,76.29
2023-02-13T04:53:16.529Z,76.41
2023-02-13T04:55:43.568Z,76.58
2023-02-13T04:58:10.575Z,76.78
2023-02-13T05:00:38.029Z,75.84
2023-02-13T05:03:06.537Z,75.58
2023-02-13T05:05:33.456Z,75.65
2023-02-13T05:08:00.900Z,75.28
2023-02-13T05:10:28.017Z,76.31
2023-02-13T05:12:54.892Z,75.98
2023-02-13T05:15:23.001Z,75.52
2023-02-13T05:17:50.215Z,75.98
2023-02-13T05:20:17.624Z,75.70
2023-02-13T05:22:49.061Z,75.76
2023-02-13T05:25:16.060Z,75.35
2023-02-13T05:27:42.987Z,75.19
2023-02-13T05:30:10.239Z,75.42
2023-02-13T05:32:37.862Z,75.32
2023-02-13T05:35:05.849Z,75.57
2023-02-13T05:37:32.731Z,75.92
2023-02-13T05:39:59.671Z,75.18
2023-02-13T05:42:26.769Z,76.32
2023-02-13T05:44:53.666Z,75.90
2023-02-13T05:47:20.587Z,75.73
2023-02-13T05:49:47.406Z,76.41
2023-02-13T05:52:14.236Z,75.79
2023-02-13T05:54:41.100Z,76.44
2023-02-13T05:57:08.198Z,76.29
2023-02-13T05:59:34.996Z,77.34
2023-02-13T06:02:01.874Z,78.42
2023-02-13T06:04:29.010Z,78.41
2023-02-13T06:06:55.840Z,78.19
2023-02-13T06:09:22.721Z,78.22
2023-02-13T06:11:49.564Z,78.18
2023-02-13T06:14:16.487Z,78.32
2023-02-13T06:16:43.422Z,79.69
2023-02-13T06:19:10.238Z,78.46
2023-02-13T06:21:38.769Z,78.54
2023-02-13T06:24:06.192Z,79.48
2023-02-13T06:26:33.307Z,79.42
2023-02-13T06:29:00.456Z,79.25
2023-02-13T06:31:27.359Z,77.88
2023-02-13T06:33:54.588Z,78.70
2023-02-13T06:36:21.383Z,77.77
2023-02-13T06:38:48.313Z,78.72
2023-02-13T06:41:15.103Z,78.73
2023-02-13T06:43:41.922Z,77.85
2023-02-13T06:46:09.406Z,78.24
2023-02-13T06:48:36.614Z,78.12
2023-02-13T06:51:03.578Z,78.07
2023-02-13T06:53:30.463Z,78.00
2023-02-13T06:55:57.409Z,77.96
2023-02-13T06:58:25.307Z,78.21
2023-02-13T07:00:52.644Z,78.10
2023-02-13T07:03:19.790Z,78.26
2023-02-13T07:05:46.683Z,78.46
2023-02-13T07:08:13.693Z,78.52
2023-02-13T07:10:41.496Z,79.95
2023-02-13T07:13:08.733Z,79.61
2023-02-13T07:15:35.737Z,80.32
2023-02-13T07:18:02.989Z,80.11
2023-02-13T07:20:29.977Z,80.30
2023-02-13T07:22:58.819Z,80.44
2023-02-13T07:25:25.760Z,80.63
2023-02-13T07:27:52.745Z,80.97
2023-02-13T07:30:19.922Z,80.49
2023-02-13T07:32:46.775Z,80.87
2023-02-13T07:35:13.750Z,80.73
2023-02-13T07:37:40.613Z,80.19
2023-02-13T07:40:11.402Z,80.85
2023-02-13T07:42:38.252Z,81.85
2023-02-13T07:45:06.591Z,80.71
2023-02-13T07:47:34.296Z,80.94
2023-02-13T07:50:01.760Z,80.88
2023-02-13T07:52:28.735Z,80.01
2023-02-13T07:54:55.639Z,80.42
2023-02-13T07:57:22.533Z,80.01
2023-02-13T07:59:49.455Z,79.34
2023-02-13T08:02:17.225Z,79.39
2023-02-13T08:04:47.532Z,79.01
2023-02-13T08:07:15.206Z,79.92
2023-02-13T08:09:45.334Z,79.47
2023-02-13T08:12:12.289Z,79.43
2023-02-13T08:14:39.265Z,79.45
2023-02-13T08:17:06.232Z,78.36
2023-02-13T08:19:33.137Z,78.47
2023-02-13T08:22:00.291Z,78.71
2023-02-13T08:24:27.481Z,78.61
2023-02-13T08:26:54.425Z,78.77
2023-02-13T08:29:21.536Z,79.33
2023-02-13T08:31:48.531Z,79.50
2023-02-13T08:34:15.523Z,79.75
2023-02-13T08:36:42.410Z,79.99
2023-02-13T08:39:10.093Z,79.48
2023-02-13T08:41:37.119Z,78.59
2023-02-13T08:44:04.183Z,76.61
2023-02-13T08:46:31.282Z,75.52
2023-02-13T08:48:58.408Z,73.51
2023-02-13T08:51:25.417Z,73.98
2023-02-13T08:53:52.376Z,75.20
2023-02-13T08:56:19.530Z,76.22
2023-02-13T08:58:49.133Z,75.90
2023-02-13T09:01:16.489Z,75.91
2023-02-13T09:03:43.589Z,75.78
2023-02-13T09:06:10.538Z,76.16
2023-02-13T09:08:37.547Z,76.96
2023-02-13T09:11:05.950Z,77.36
2023-02-13T09:13:34.731Z,76.78
2023-02-13T09:16:02.739Z,77.12
2023-02-13T09:18:30.071Z,76.77
2023-02-13T09:20:59.093Z,77.32
2023-02-13T09:23:26.212Z,77.08
2023-02-13T09:25:53.271Z,76.30
2023-02-13T09:28:20.279Z,76.57
2023-02-13T09:30:49.534Z,76.33
2023-02-13T09:33:16.618Z,76.94
2023-02-13T09:35:44.780Z,76.73
2023-02-13T09:38:12.099Z,77.55
2023-02-13T09:40:39.334Z,76.63
2023-02-13T09:43:09.318Z,77.35
2023-02-13T09:45:36.943Z,77.13
2023-02-13T09:48:04.669Z,77.08
2023-02-13T09:50:33.736Z,77.33
2023-02-13T09:53:00.782Z,78.49
2023-02-13T09:55:31.849Z,77.91
2023-02-13T09:58:02.070Z,77.34
2023-02-13T10:00:32.225Z,76.27
2023-02-13T10:02:59.722Z,75.75
2023-02-13T10:05:29.726Z,75.71
2023-02-13T10:07:56.962Z,75.08
2023-02-13T10:10:30.860Z,75.50
2023-02-13T10:13:00.844Z,75.65
2023-02-13T10:15:30.835Z,76.34
2023-02-13T10:18:00.831Z,76.35
2023-02-13T10:20:30.881Z,75.02
2023-02-13T10:23:00.946Z,75.52
2023-02-13T10:25:30.550Z,75.97
2023-02-13T10:28:00.734Z,75.34
2023-02-13T10:30:31.023Z,75.47
2023-02-13T10:33:04.092Z,75.29
2023-02-13T10:35:31.724Z,75.10
2023-02-13T10:38:00.112Z,74.53
2023-02-13T10:40:30.180Z,74.71
2023-02-13T10:43:00.154Z,74.45
2023-02-13T10:45:30.364Z,73.83
2023-02-13T10:47:57.777Z,74.23
2023-02-13T10:50:26.175Z,74.23
2023-02-13T10:52:56.420Z,74.50
2023-02-13T10:55:24.871Z,74.49
2023-02-13T10:58:02.063Z,74.99
2023-02-13T11:00:34.383Z,74.42
2023-02-13T11:03:01.679Z,74.22
2023-02-13T11:05:31.677Z,74.46
2023-02-13T11:08:00.177Z,74.51
2023-02-13T11:10:28.304Z,74.65
2023-02-13T11:12:56.948Z,73.81
2023-02-13T11:15:27.167Z,72.92
2023-02-13T11:17:55.554Z,73.31
2023-02-13T11:20:25.541Z,74.30
2023-02-13T11:22:52.667Z,74.03
2023-02-13T11:25:22.831Z,74.56
2023-02-13T11:27:50.727Z,74.41
2023-02-13T11:30:20.723Z,74.34
2023-02-13T11:32:56.652Z,73.97
2023-02-13T11:35:27.100Z,73.48
2023-02-13T11:37:57.192Z,73.43
2023-02-13T11:40:27.247Z,73.55
2023-02-13T11:42:54.241Z,73.07
2023-02-13T11:45:23.233Z,72.48
2023-02-13T11:47:50.570Z,72.47
2023-02-13T11:50:20.778Z,73.16
2023-02-13T11:52:50.792Z,71.78
2023-02-13T11:55:20.864Z,72.20
2023-02-13T11:57:56.611Z,72.46
2023-02-13T12:02:55.331Z,72.19
2023-02-13T12:05:24.014Z,72.05
2023-02-13T12:07:51.372Z,71.70
2023-02-13T12:10:21.453Z,71.34
2023-02-13T12:12:50.697Z,70.87
2023-02-13T12:15:19.602Z,71.08
2023-02-13T12:17:48.856Z,70.65
2023-02-13T12:20:17.395Z,70.64
2023-02-13T12:22:55.538Z,70.83
2023-02-13T12:25:25.522Z,71.22
2023-02-13T12:27:55.485Z,71.34
2023-02-13T12:30:25.439Z,70.10
2023-02-13T12:32:53.758Z,70.20
2023-02-13T12:35:23.940Z,70.08
2023-02-13T12:37:53.884Z,69.98
2023-02-13T12:40:25.063Z,69.59
2023-02-13T12:42:55.197Z,69.03
2023-02-13T12:45:22.606Z,68.85
2023-02-13T12:47:50.914Z,68.79
2023-02-13T12:50:27.579Z,68.23
2023-02-13T12:52:55.812Z,68.01
2023-02-13T12:55:29.369Z,68.34
2023-02-13T12:57:59.337Z,68.67
2023-02-13T13:00:26.894Z,68.30
2023-02-13T13:02:57.032Z,68.19
2023-02-13T13:05:27.693Z,68.53
2023-02-13T13:08:01.509Z,67.95
2023-02-13T13:10:28.901Z,68.29
2023-02-13T13:12:58.861Z,68.61
2023-02-13T13:15:33.357Z,67.53
2023-02-13T13:18:03.334Z,68.35
2023-02-13T13:20:31.633Z,68.32
2023-02-13T13:23:06.305Z,67.61
2023-02-13T13:25:36.843Z,67.25
2023-02-13T13:28:06.899Z,66.97
2023-02-13T13:30:36.139Z,66.50
2023-02-13T13:33:07.700Z,66.75
2023-02-13T13:35:35.217Z,67.08
2023-02-13T13:38:02.933Z,67.37
2023-02-13T13:40:30.237Z,67.39
2023-02-13T13:43:03.684Z,67.73
2023-02-13T13:45:38.254Z,68.48
2023-02-13T13:48:08.275Z,67.73
2023-02-13T13:50:37.975Z,67.07
2023-02-13T13:53:06.662Z,66.76
2023-02-13T13:55:36.632Z,67.09
2023-02-13T13:58:03.548Z,69.34
2023-02-13T14:00:30.942Z,68.36
2023-02-13T14:02:59.198Z,67.34
2023-02-13T14:05:26.424Z,67.07
2023-02-13T14:07:56.604Z,66.35
2023-02-13T14:10:26.585Z,66.74
2023-02-13T14:12:53.910Z,66.90
2023-02-13T14:15:23.897Z,68.19
2023-02-13T14:17:52.504Z,67.40
2023-02-13T14:20:22.475Z,67.13
2023-02-13T14:22:49.580Z,66.81
2023-02-13T14:25:19.622Z,67.30
2023-02-13T14:27:55.310Z,67.59
2023-02-13T14:30:27.256Z,66.84
2023-02-13T14:32:54.708Z,67.60
2023-02-13T14:35:24.759Z,66.52
2023-02-13T14:37:53.299Z,67.37
2023-02-13T14:40:20.561Z,66.61
2023-02-13T14:42:52.041Z,67.50
2023-02-13T14:45:22.348Z,66.96
2023-02-13T14:47:53.669Z,66.83
2023-02-13T14:50:24.852Z,66.74
2023-02-13T14:52:52.752Z,66.37
2023-02-13T14:55:22.773Z,67.18
2023-02-13T14:57:52.568Z,68.26
2023-02-13T15:00:22.739Z,68.48
2023-02-13T15:02:53.714Z,67.53
2023-02-13T15:05:21.034Z,67.55
2023-02-13T15:07:48.856Z,67.67
2023-02-13T15:10:18.941Z,68.08
2023-02-13T15:12:45.905Z,68.94
2023-02-13T15:15:16.144Z,70.49
2023-02-13T15:17:43.316Z,69.99
2023-02-13T15:20:13.275Z,68.57
2023-02-13T15:22:41.762Z,68.32
2023-02-13T15:25:09.236Z,68.61
2023-02-13T15:27:43.294Z,68.48
2023-02-13T15:30:13.290Z,69.03
2023-02-13T15:32:41.731Z,68.37
2023-02-13T15:35:12.438Z,68.70
2023-02-13T15:37:39.420Z,67.84
2023-02-13T15:40:09.482Z,67.78
2023-02-13T15:42:38.207Z,67.85
2023-02-13T15:45:05.671Z,67.71
2023-02-13T15:47:33.437Z,68.15
2023-02-13T15:50:01.012Z,69.37
2023-02-13T15:52:31.065Z,68.76
2023-02-13T15:54:58.211Z,68.18
2023-02-13T15:57:27.120Z,68.39
2023-02-13T15:59:55.895Z,68.58
2023-02-13T16:02:26.026Z,67.94
2023-02-13T16:04:53.730Z,68.56
2023-02-13T16:07:20.947Z,68.78
2023-02-13T16:09:48.195Z,69.38
2023-02-13T16:12:18.316Z,69.75
2023-02-13T16:14:49.029Z,69.72
2023-02-13T16:17:18.706Z,71.67
2023-02-13T16:19:53.274Z,71.07
2023-02-13T16:22:21.956Z,71.18
2023-02-13T16:24:51.185Z,69.70
2023-02-13T16:27:20.767Z,69.55
2023-02-13T16:29:51.569Z,69.67
2023-02-13T16:32:23.137Z,70.22
2023-02-13T16:34:51.112Z,70.28
2023-02-13T16:37:21.150Z,70.27
2023-02-13T16:39:48.113Z,70.93
2023-02-13T16:42:19.617Z,71.33
2023-02-13T16:44:46.551Z,71.31
2023-02-13T16:47:21.256Z,71.25
2023-02-13T16:49:53.373Z,72.21
2023-02-13T16:52:23.679Z,72.70
2023-02-13T16:54:51.031Z,72.44
2023-02-13T16:57:35.679Z,71.98
2023-02-13T17:00:05.902Z,72.15
2023-02-13T17:02:33.338Z,72.89
2023-02-13T17:05:03.580Z,72.51
2023-02-13T17:07:32.223Z,73.25
2023-02-13T17:10:00.619Z,74.62
2023-02-13T17:12:28.997Z,74.66
2023-02-13T17:14:57.456Z,73.43
2023-02-13T17:17:24.863Z,73.45
2023-02-13T17:19:51.835Z,73.82
2023-02-13T17:22:19.120Z,73.46
2023-02-13T17:24:46.175Z,73.44
2023-02-13T17:27:13.077Z,73.76
2023-02-13T17:29:40.202Z,74.34
2023-02-13T17:32:09.533Z,75.37
2023-02-13T17:34:36.551Z,74.28
2023-02-13T17:37:03.463Z,74.82
2023-02-13T17:39:30.411Z,74.77
2023-02-13T17:41:57.395Z,74.76
2023-02-13T17:44:24.474Z,75.04
2023-02-13T17:46:53.360Z,75.85
2023-02-13T17:49:20.712Z,75.90
2023-02-13T17:51:48.140Z,76.00
2023-02-13T17:54:15.387Z,76.23
2023-02-13T17:56:42.370Z,76.17
2023-02-13T17:59:09.383Z,76.68
2023-02-13T18:01:36.422Z,76.53
2023-02-13T18:04:03.498Z,76.61
2023-02-13T18:06:31.461Z,77.08
2023-02-13T18:08:58.501Z,77.52
2023-02-13T18:11:25.680Z,77.26
2023-02-13T18:13:52.869Z,76.89
2023-02-13T18:16:22.941Z,77.34
2023-02-13T18:18:49.965Z,77.63
2023-02-13T18:21:17.006Z,77.48
2023-02-13T18:23:44.056Z,78.31
2023-02-13T18:26:11.116Z,79.00
2023-02-13T18:28:38.443Z,78.87
2023-02-13T18:31:05.574Z,80.03
2023-02-13T18:33:32.793Z,79.75
2023-02-13T18:36:00.624Z,80.00
2023-02-13T18:38:27.739Z,80.49
2023-02-13T18:40:54.834Z,81.08
2023-02-13T18:43:21.939Z,80.99
2023-02-13T18:45:49.301Z,81.33
2023-02-13T18:48:16.271Z,80.69
2023-02-13T18:50:43.311Z,80.82
2023-02-13T18:53:10.507Z,81.48
2023-02-13T18:55:37.919Z,81.27
2023-02-13T18:58:05.531Z,81.04
2023-02-13T19:00:32.581Z,80.74
2023-02-13T19:03:00.033Z,81.67
2023-02-13T19:05:27.329Z,81.78
2023-02-13T19:07:54.371Z,81.56
2023-02-13T19:10:21.549Z,81.73
2023-02-13T19:12:48.660Z,82.38
2023-02-13T19:15:16.895Z,82.17
2023-02-13T19:17:43.996Z,81.93
2023-02-13T19:20:11.394Z,81.81
2023-02-13T19:22:38.532Z,81.75
2023-02-13T19:25:05.653Z,81.74
2023-02-13T19:27:32.597Z,82.20
2023-02-13T19:29:59.734Z,81.63
2023-02-13T19:32:26.762Z,82.32
2023-02-13T19:34:53.690Z,82.04
2023-02-13T19:37:20.654Z,82.50
2023-02-13T19:39:47.693Z,82.42
2023-02-13T19:42:14.647Z,82.42
2023-02-13T19:44:41.533Z,82.76
2023-02-13T19:47:08.552Z,83.06
2023-02-13T19:49:35.540Z,83.19
2023-02-13T19:52:03.994Z,82.93
2023-02-13T19:54:30.986Z,82.66
2023-02-13T19:57:02.090Z,82.27
2023-02-13T19:59:29.216Z,82.56
2023-02-13T20:01:56.201Z,82.81
2023-02-13T20:04:23.183Z,83.15
2023-02-13T20:06:51.096Z,82.97
2023-02-13T20:09:18.215Z,82.91
2023-02-13T20:11:45.900Z,83.03
2023-02-13T20:14:15.334Z,83.06
2023-02-13T20:16:43.272Z,84.19
2023-02-13T20:19:13.357Z,84.88
2023-02-13T20:21:41.813Z,84.48
2023-02-13T20:24:09.392Z,84.46
2023-02-13T20:26:36.665Z,84.25
2023-02-13T20:29:03.570Z,83.98
2023-02-13T20:31:31.017Z,83.45
2023-02-13T20:33:58.645Z,83.28
2023-02-13T20:36:27.691Z,83.67
2023-02-13T20:38:55.733Z,83.82
2023-02-13T20:41:24.087Z,84.38
2023-02-13T20:43:51.557Z,84.57
2023-02-13T20:46:19.273Z,84.69
2023-02-13T20:48:47.699Z,84.69
2023-02-13T20:51:15.737Z,84.56
2023-02-13T20:53:43.466Z,84.61
2023-02-13T20:56:13.885Z,84.83
2023-02-13T20:58:41.844Z,84.80
2023-02-13T21:01:13.334Z,84.99
2023-02-13T21:03:42.672Z,85.46
2023-02-13T21:06:10.715Z,85.02
2023-02-13T21:08:38.831Z,84.40
2023-02-13T21:11:07.843Z,84.16
2023-02-13T21:13:37.485Z,84.00
2023-02-13T21:16:10.134Z,83.56
2023-02-13T21:18:40.731Z,83.57
2023-02-13T21:21:10.243Z,83.37
2023-02-13T21:23:39.368Z,83.81
2023-02-13T21:26:26.663Z,83.85
2023-02-13T21:28:57.818Z,84.05
2023-02-13T21:31:29.616Z,83.98
2023-02-13T21:34:00.104Z,83.59
2023-02-13T21:36:27.611Z,83.65
2023-02-13T21:38:54.544Z,83.61
2023-02-13T21:41:21.911Z,83.55
2023-02-13T21:43:52.669Z,82.99
2023-02-13T21:46:22.744Z,82.69
2023-02-13T21:48:53.837Z,82.75
2023-02-13T21:51:21.063Z,82.81
2023-02-13T21:53:49.265Z,82.56
2023-02-13T21:56:17.378Z,82.81
2023-02-13T21:58:44.518Z,82.59
2023-02-13T22:01:23.978Z,82.48
2023-02-13T22:03:53.010Z,82.31
2023-02-13T22:06:20.295Z,82.32
2023-02-13T22:08:47.727Z,82.41
2023-02-13T22:11:14.694Z,82.45
2023-02-13T22:13:41.936Z,82.79
2023-02-13T22:16:10.500Z,82.72
2023-02-13T22:18:38.711Z,82.47
2023-02-13T22:21:09.092Z,82.67
2023-02-13T22:23:36.968Z,82.99
2023-02-13T22:26:04.677Z,82.50
2023-02-13T22:28:31.556Z,82.21
2023-02-13T22:30:58.949Z,82.38
2023-02-13T22:33:26.175Z,82.53
2023-02-13T22:35:52.926Z,82.91
2023-02-13T22:38:22.794Z,82.87
2023-02-13T22:40:49.601Z,82.94
2023-02-13T22:43:16.340Z,82.79
2023-02-13T22:45:43.188Z,82.73
2023-02-13T22:48:10.054Z,82.85
2023-02-13T22:50:36.799Z,83.39
2023-02-13T22:53:03.557Z,83.45
2023-02-13T22:55:30.284Z,83.91
2023-02-13T22:57:58.514Z,83.55
2023-02-13T23:00:25.348Z,83.41
2023-02-13T23:02:52.097Z,83.10
2023-02-13T23:05:20.626Z,83.35
2023-02-13T23:07:47.490Z,82.93
2023-02-13T23:10:14.368Z,83.41
2023-02-13T23:12:45.707Z,83.30
2023-02-13T23:15:14.881Z,83.98
2023-02-13T23:17:47.830Z,85.41
2023-02-13T23:20:18.948Z,86.32
2023-02-13T23:22:45.905Z,86.02
2023-02-13T23:25:12.961Z,85.35
2023-02-13T23:27:39.965Z,85.84
2023-02-13T23:30:07.978Z,85.18
2023-02-13T23:32:34.933Z,85.00
2023-02-13T23:35:01.976Z,84.59
2023-02-13T23:37:31.947Z,84.40
2023-02-13T23:39:58.982Z,86.11
2023-02-13T23:42:26.038Z,86.75
2023-02-13T23:44:53.011Z,86.72
2023-02-13T23:47:20.014Z,86.00
2023-02-13T23:49:50.173Z,85.72
2023-02-13T23:52:17.034Z,86.10
2023-02-13T23:54:43.941Z,86.64
2023-02-13T23:57:14.058Z,86.42
2023-02-13T23:59:44.095Z,86.62
